sensor_id;sensor_type;location;lat;lon;timestamp;temperature;humidity
60868;DHT22;46702;48.370;10.794;2023-11-19T00:00:47;6.40;99.90
60868;DHT22;46702;48.370;10.794;2023-11-19T00:03:20;6.40;99.90
60868;DHT22;46702;48.370;10.794;2023-11-19T00:05:46;6.50;99.90
60868;DHT22;46702;48.370;10.794;2023-11-19T00:08:13;6.50;99.90
60868;DHT22;46702;48.370;10.794;2023-11-19T00:10:39;6.50;99.90
60868;DHT22;46702;48.370;10.794;2023-11-19T00:13:07;6.50;99.90
60868;DHT22;46702;48.370;10.794;2023-11-19T00:15:33;6.60;99.90
60868;DHT22;46702;48.370;10.794;2023-11-19T00:17:59;6.60;99.90
60868;DHT22;46702;48.370;10.794;2023-11-19T00:20:25;6.60;99.90
60868;DHT22;46702;48.370;10.794;2023-11-19T00:22:50;6.60;99.90
60868;DHT22;46702;48.370;10.794;2023-11-19T00:25:17;6.60;99.90
60868;DHT22;46702;48.370;10.794;2023-11-19T00:27:43;6.70;99.90
60868;DHT22;46702;48.370;10.794;2023-11-19T00:30:12;6.60;99.90
60868;DHT22;46702;48.370;10.794;2023-11-19T00:32:40;6.70;99.90
60868;DHT22;46702;48.370;10.794;2023-11-19T00:35:07;6.70;99.90
60868;DHT22;46702;48.370;10.794;2023-11-19T00:37:35;6.70;99.90
60868;DHT22;46702;48.370;10.794;2023-11-19T00:40:01;6.70;99.90
60868;DHT22;46702;48.370;10.794;2023-11-19T00:42:31;6.70;99.90
60868;DHT22;46702;48.370;10.794;2023-11-19T00:44:57;6.70;99.90
60868;DHT22;46702;48.370;10.794;2023-11-19T00:47:23;6.80;99.90
60868;DHT22;46702;48.370;10.794;2023-11-19T00:49:49;6.80;99.90
60868;DHT22;46702;48.370;10.794;2023-11-19T00:52:18;6.80;99.90
60868;DHT22;46702;48.370;10.794;2023-11-19T00:54:44;6.80;99.90
60868;DHT22;46702;48.370;10.794;2023-11-19T00:57:10;6.80;99.90
60868;DHT22;46702;48.370;10.794;2023-11-19T00:59:36;6.80;99.90
60868;DHT22;46702;48.370;10.794;2023-11-19T01:02:02;6.80;99.90
60868;DHT22;46702;48.370;10.794;2023-11-19T01:04:33;6.90;99.90
60868;DHT22;46702;48.370;10.794;2023-11-19T01:06:59;6.90;99.90
60868;DHT22;46702;48.370;10.794;2023-11-19T01:09:25;7.00;99.90
60868;DHT22;46702;48.370;10.794;2023-11-19T01:11:52;7.00;99.90
60868;DHT22;46702;48.370;10.794;2023-11-19T01:14:19;7.00;99.90
60868;DHT22;46702;48.370;10.794;2023-11-19T01:16:44;7.10;99.90
60868;DHT22;46702;48.370;10.794;2023-11-19T01:19:13;7.10;99.90
60868;DHT22;46702;48.370;10.794;2023-11-19T01:21:39;7.10;99.90
60868;DHT22;46702;48.370;10.794;2023-11-19T01:24:05;7.20;99.90
60868;DHT22;46702;48.370;10.794;2023-11-19T01:26:34;7.20;99.90
60868;DHT22;46702;48.370;10.794;2023-11-19T01:29:00;7.20;99.90
60868;DHT22;46702;48.370;10.794;2023-11-19T01:31:26;7.30;99.90
60868;DHT22;46702;48.370;10.794;2023-11-19T01:33:52;7.30;99.90
60868;DHT22;46702;48.370;10.794;2023-11-19T01:36:18;7.30;99.90
60868;DHT22;46702;48.370;10.794;2023-11-19T01:38:44;7.30;99.90
60868;DHT22;46702;48.370;10.794;2023-11-19T01:41:10;7.40;99.90
60868;DHT22;46702;48.370;10.794;2023-11-19T01:43:39;7.40;99.90
60868;DHT22;46702;48.370;10.794;2023-11-19T01:46:08;7.50;99.90
60868;DHT22;46702;48.370;10.794;2023-11-19T01:48:42;7.50;99.90
60868;DHT22;46702;48.370;10.794;2023-11-19T01:51:09;7.60;99.90
60868;DHT22;46702;48.370;10.794;2023-11-19T01:53:38;7.50;99.90
60868;DHT22;46702;48.370;10.794;2023-11-19T01:56:11;7.60;99.90
60868;DHT22;46702;48.370;10.794;2023-11-19T01:58:39;7.60;99.90
60868;DHT22;46702;48.370;10.794;2023-11-19T02:01:06;7.70;99.90
60868;DHT22;46702;48.370;10.794;2023-11-19T02:03:35;7.70;99.90
60868;DHT22;46702;48.370;10.794;2023-11-19T02:06:02;7.70;99.90
60868;DHT22;46702;48.370;10.794;2023-11-19T02:08:29;7.70;99.90
60868;DHT22;46702;48.370;10.794;2023-11-19T02:11:00;7.70;99.90
60868;DHT22;46702;48.370;10.794;2023-11-19T02:13:27;7.70;99.90
60868;DHT22;46702;48.370;10.794;2023-11-19T02:15:59;7.80;99.90
60868;DHT22;46702;48.370;10.794;2023-11-19T02:21:39;7.80;99.90
60868;DHT22;46702;48.370;10.794;2023-11-19T02:24:10;7.90;99.90
60868;DHT22;46702;48.370;10.794;2023-11-19T02:26:50;7.90;99.90
60868;DHT22;46702;48.370;10.794;2023-11-19T02:29:17;7.80;99.90
60868;DHT22;46702;48.370;10.794;2023-11-19T02:31:46;7.90;99.90
60868;DHT22;46702;48.370;10.794;2023-11-19T02:34:16;7.90;99.90
60868;DHT22;46702;48.370;10.794;2023-11-19T02:36:47;7.90;99.90
60868;DHT22;46702;48.370;10.794;2023-11-19T02:39:16;7.90;99.90
60868;DHT22;46702;48.370;10.794;2023-11-19T02:41:52;7.90;99.90
60868;DHT22;46702;48.370;10.794;2023-11-19T02:44:38;7.90;99.90
60868;DHT22;46702;48.370;10.794;2023-11-19T02:47:07;7.90;99.90
60868;DHT22;46702;48.370;10.794;2023-11-19T02:49:33;8.00;99.90
60868;DHT22;46702;48.370;10.794;2023-11-19T02:52:03;8.00;99.90
60868;DHT22;46702;48.370;10.794;2023-11-19T02:54:42;8.00;99.90
60868;DHT22;46702;48.370;10.794;2023-11-19T02:57:18;8.00;99.90
60868;DHT22;46702;48.370;10.794;2023-11-19T03:00:00;8.00;99.90
60868;DHT22;46702;48.370;10.794;2023-11-19T03:02:33;8.00;99.90
60868;DHT22;46702;48.370;10.794;2023-11-19T03:05:02;8.00;99.90
60868;DHT22;46702;48.370;10.794;2023-11-19T03:07:31;8.10;99.90
60868;DHT22;46702;48.370;10.794;2023-11-19T03:09:59;8.10;99.90
60868;DHT22;46702;48.370;10.794;2023-11-19T03:12:25;8.00;99.90
60868;DHT22;46702;48.370;10.794;2023-11-19T03:14:54;8.10;99.90
60868;DHT22;46702;48.370;10.794;2023-11-19T03:17:20;8.10;99.90
60868;DHT22;46702;48.370;10.794;2023-11-19T03:19:46;8.10;99.90
60868;DHT22;46702;48.370;10.794;2023-11-19T03:22:14;8.10;99.90
60868;DHT22;46702;48.370;10.794;2023-11-19T03:24:40;8.10;99.90
60868;DHT22;46702;48.370;10.794;2023-11-19T03:27:05;8.20;99.90
60868;DHT22;46702;48.370;10.794;2023-11-19T03:29:31;8.20;99.90
60868;DHT22;46702;48.370;10.794;2023-11-19T03:31:57;8.20;99.90
60868;DHT22;46702;48.370;10.794;2023-11-19T03:34:23;8.20;99.90
60868;DHT22;46702;48.370;10.794;2023-11-19T03:36:59;8.30;99.90
60868;DHT22;46702;48.370;10.794;2023-11-19T03:39:25;8.30;99.90
60868;DHT22;46702;48.370;10.794;2023-11-19T03:41:51;8.30;99.90
60868;DHT22;46702;48.370;10.794;2023-11-19T03:44:16;8.30;99.90
60868;DHT22;46702;48.370;10.794;2023-11-19T03:46:43;8.40;99.90
60868;DHT22;46702;48.370;10.794;2023-11-19T03:49:09;8.40;99.90
60868;DHT22;46702;48.370;10.794;2023-11-19T03:51:34;8.40;99.90
60868;DHT22;46702;48.370;10.794;2023-11-19T03:54:03;8.40;99.90
60868;DHT22;46702;48.370;10.794;2023-11-19T03:56:29;8.50;99.90
60868;DHT22;46702;48.370;10.794;2023-11-19T03:58:56;8.50;99.90
60868;DHT22;46702;48.370;10.794;2023-11-19T04:01:22;8.50;99.90
60868;DHT22;46702;48.370;10.794;2023-11-19T04:03:48;8.50;99.90
60868;DHT22;46702;48.370;10.794;2023-11-19T04:06:14;8.50;99.90
60868;DHT22;46702;48.370;10.794;2023-11-19T04:08:43;8.50;99.90
60868;DHT22;46702;48.370;10.794;2023-11-19T04:11:10;8.50;99.90
60868;DHT22;46702;48.370;10.794;2023-11-19T04:13:39;8.60;99.90
60868;DHT22;46702;48.370;10.794;2023-11-19T04:16:12;8.60;99.90
60868;DHT22;46702;48.370;10.794;2023-11-19T04:18:38;8.60;99.90
60868;DHT22;46702;48.370;10.794;2023-11-19T04:21:06;8.60;99.90
60868;DHT22;46702;48.370;10.794;2023-11-19T04:23:32;8.60;99.90
60868;DHT22;46702;48.370;10.794;2023-11-19T04:25:58;8.60;99.90
60868;DHT22;46702;48.370;10.794;2023-11-19T04:28:23;8.70;99.90
60868;DHT22;46702;48.370;10.794;2023-11-19T04:30:52;8.70;99.90
60868;DHT22;46702;48.370;10.794;2023-11-19T04:33:18;8.70;99.90
60868;DHT22;46702;48.370;10.794;2023-11-19T04:35:43;8.70;99.90
60868;DHT22;46702;48.370;10.794;2023-11-19T04:38:09;8.70;99.90
60868;DHT22;46702;48.370;10.794;2023-11-19T04:40:38;8.70;99.90
60868;DHT22;46702;48.370;10.794;2023-11-19T04:43:03;8.70;99.90
60868;DHT22;46702;48.370;10.794;2023-11-19T04:45:30;8.80;99.90
60868;DHT22;46702;48.370;10.794;2023-11-19T04:47:58;8.80;99.90
60868;DHT22;46702;48.370;10.794;2023-11-19T04:50:24;8.80;99.90
60868;DHT22;46702;48.370;10.794;2023-11-19T04:52:52;8.80;99.90
60868;DHT22;46702;48.370;10.794;2023-11-19T04:55:25;8.80;99.90
60868;DHT22;46702;48.370;10.794;2023-11-19T04:57:53;8.80;99.90
60868;DHT22;46702;48.370;10.794;2023-11-19T05:00:19;8.80;99.90
60868;DHT22;46702;48.370;10.794;2023-11-19T05:02:46;8.80;99.90
60868;DHT22;46702;48.370;10.794;2023-11-19T05:05:12;8.80;99.90
60868;DHT22;46702;48.370;10.794;2023-11-19T05:07:38;8.80;99.90
60868;DHT22;46702;48.370;10.794;2023-11-19T05:10:04;8.80;99.90
60868;DHT22;46702;48.370;10.794;2023-11-19T05:12:51;8.80;99.90
60868;DHT22;46702;48.370;10.794;2023-11-19T05:15:42;8.80;99.90
60868;DHT22;46702;48.370;10.794;2023-11-19T05:18:13;8.80;99.90
60868;DHT22;46702;48.370;10.794;2023-11-19T05:20:45;8.80;99.90
60868;DHT22;46702;48.370;10.794;2023-11-19T05:23:11;8.80;99.90
60868;DHT22;46702;48.370;10.794;2023-11-19T05:25:37;8.80;99.90
60868;DHT22;46702;48.370;10.794;2023-11-19T05:28:06;8.80;99.90
60868;DHT22;46702;48.370;10.794;2023-11-19T05:30:31;8.80;99.90
60868;DHT22;46702;48.370;10.794;2023-11-19T05:32:57;8.80;99.90
60868;DHT22;46702;48.370;10.794;2023-11-19T05:35:31;8.80;99.90
60868;DHT22;46702;48.370;10.794;2023-11-19T05:37:57;8.80;99.90
60868;DHT22;46702;48.370;10.794;2023-11-19T05:40:23;8.80;99.90
60868;DHT22;46702;48.370;10.794;2023-11-19T05:42:48;8.80;99.90
60868;DHT22;46702;48.370;10.794;2023-11-19T05:45:17;8.80;99.90
60868;DHT22;46702;48.370;10.794;2023-11-19T05:47:43;8.80;99.90
60868;DHT22;46702;48.370;10.794;2023-11-19T05:50:09;8.80;99.90
60868;DHT22;46702;48.370;10.794;2023-11-19T05:52:35;8.90;99.90
60868;DHT22;46702;48.370;10.794;2023-11-19T05:55:01;8.90;99.90
60868;DHT22;46702;48.370;10.794;2023-11-19T05:57:30;8.90;99.90
60868;DHT22;46702;48.370;10.794;2023-11-19T05:59:56;8.90;99.90
60868;DHT22;46702;48.370;10.794;2023-11-19T06:02:24;8.90;99.90
60868;DHT22;46702;48.370;10.794;2023-11-19T06:04:50;8.90;99.90
60868;DHT22;46702;48.370;10.794;2023-11-19T06:07:15;8.90;99.90
60868;DHT22;46702;48.370;10.794;2023-11-19T06:09:41;8.90;99.90
60868;DHT22;46702;48.370;10.794;2023-11-19T06:12:07;8.90;99.90
60868;DHT22;46702;48.370;10.794;2023-11-19T06:14:33;8.90;99.90
60868;DHT22;46702;48.370;10.794;2023-11-19T06:16:59;8.90;99.90
60868;DHT22;46702;48.370;10.794;2023-11-19T06:19:25;8.90;99.90
60868;DHT22;46702;48.370;10.794;2023-11-19T06:21:54;9.00;99.90
60868;DHT22;46702;48.370;10.794;2023-11-19T06:24:19;9.00;99.90
60868;DHT22;46702;48.370;10.794;2023-11-19T06:26:49;8.90;99.90
60868;DHT22;46702;48.370;10.794;2023-11-19T06:29:18;9.00;99.90
60868;DHT22;46702;48.370;10.794;2023-11-19T06:31:51;9.00;99.90
60868;DHT22;46702;48.370;10.794;2023-11-19T06:34:19;9.10;99.90
60868;DHT22;46702;48.370;10.794;2023-11-19T06:36:54;9.10;99.90
60868;DHT22;46702;48.370;10.794;2023-11-19T06:39:20;9.10;99.90
60868;DHT22;46702;48.370;10.794;2023-11-19T06:41:46;9.10;99.90
60868;DHT22;46702;48.370;10.794;2023-11-19T06:44:12;9.10;99.90
60868;DHT22;46702;48.370;10.794;2023-11-19T06:46:39;9.10;99.90
60868;DHT22;46702;48.370;10.794;2023-11-19T06:49:04;9.20;99.90
60868;DHT22;46702;48.370;10.794;2023-11-19T06:51:30;9.20;99.90
60868;DHT22;46702;48.370;10.794;2023-11-19T06:53:56;9.20;99.90
60868;DHT22;46702;48.370;10.794;2023-11-19T06:56:22;9.20;99.90
60868;DHT22;46702;48.370;10.794;2023-11-19T06:58:49;9.20;99.90
60868;DHT22;46702;48.370;10.794;2023-11-19T07:01:15;9.30;99.90
60868;DHT22;46702;48.370;10.794;2023-11-19T07:04:03;9.30;99.90
60868;DHT22;46702;48.370;10.794;2023-11-19T07:06:35;9.30;99.90
60868;DHT22;46702;48.370;10.794;2023-11-19T07:09:02;9.30;99.90
60868;DHT22;46702;48.370;10.794;2023-11-19T07:11:36;9.30;99.90
60868;DHT22;46702;48.370;10.794;2023-11-19T07:14:03;9.40;99.90
60868;DHT22;46702;48.370;10.794;2023-11-19T07:16:28;9.40;99.90
60868;DHT22;46702;48.370;10.794;2023-11-19T07:18:54;9.40;99.90
60868;DHT22;46702;48.370;10.794;2023-11-19T07:21:23;9.40;99.90
60868;DHT22;46702;48.370;10.794;2023-11-19T07:23:48;9.50;99.90
60868;DHT22;46702;48.370;10.794;2023-11-19T07:26:18;9.50;99.90
60868;DHT22;46702;48.370;10.794;2023-11-19T07:28:44;9.50;99.90
60868;DHT22;46702;48.370;10.794;2023-11-19T07:31:10;9.60;99.90
60868;DHT22;46702;48.370;10.794;2023-11-19T07:33:36;9.60;99.90
60868;DHT22;46702;48.370;10.794;2023-11-19T07:36:02;9.60;99.90
60868;DHT22;46702;48.370;10.794;2023-11-19T07:38:28;9.60;99.90
60868;DHT22;46702;48.370;10.794;2023-11-19T07:40:54;9.70;99.90
60868;DHT22;46702;48.370;10.794;2023-11-19T07:43:19;9.70;99.90
60868;DHT22;46702;48.370;10.794;2023-11-19T07:45:45;9.70;99.90
60868;DHT22;46702;48.370;10.794;2023-11-19T07:48:11;9.80;99.90
60868;DHT22;46702;48.370;10.794;2023-11-19T07:50:39;9.80;99.90
60868;DHT22;46702;48.370;10.794;2023-11-19T07:53:07;9.90;99.90
60868;DHT22;46702;48.370;10.794;2023-11-19T07:55:34;9.90;99.90
60868;DHT22;46702;48.370;10.794;2023-11-19T07:58:02;10.00;99.90
60868;DHT22;46702;48.370;10.794;2023-11-19T08:00:28;10.00;99.90
60868;DHT22;46702;48.370;10.794;2023-11-19T08:02:54;10.00;99.90
60868;DHT22;46702;48.370;10.794;2023-11-19T08:05:20;10.00;99.90
60868;DHT22;46702;48.370;10.794;2023-11-19T08:07:45;10.00;99.90
60868;DHT22;46702;48.370;10.794;2023-11-19T08:10:11;10.00;99.90
60868;DHT22;46702;48.370;10.794;2023-11-19T08:12:40;10.10;99.90
60868;DHT22;46702;48.370;10.794;2023-11-19T08:15:06;10.10;99.90
60868;DHT22;46702;48.370;10.794;2023-11-19T08:17:32;10.10;99.90
60868;DHT22;46702;48.370;10.794;2023-11-19T08:19:58;10.10;99.90
60868;DHT22;46702;48.370;10.794;2023-11-19T08:22:25;10.20;99.90
60868;DHT22;46702;48.370;10.794;2023-11-19T08:24:51;10.20;99.90
60868;DHT22;46702;48.370;10.794;2023-11-19T08:27:16;10.30;99.90
60868;DHT22;46702;48.370;10.794;2023-11-19T08:29:42;10.30;99.90
60868;DHT22;46702;48.370;10.794;2023-11-19T08:32:11;10.30;99.90
60868;DHT22;46702;48.370;10.794;2023-11-19T08:34:36;10.30;99.90
60868;DHT22;46702;48.370;10.794;2023-11-19T08:37:05;10.30;99.90
60868;DHT22;46702;48.370;10.794;2023-11-19T08:39:31;10.40;99.90
60868;DHT22;46702;48.370;10.794;2023-11-19T08:41:57;10.40;99.90
60868;DHT22;46702;48.370;10.794;2023-11-19T08:44:23;10.50;99.90
60868;DHT22;46702;48.370;10.794;2023-11-19T08:46:50;10.50;99.90
60868;DHT22;46702;48.370;10.794;2023-11-19T08:49:15;10.50;99.90
60868;DHT22;46702;48.370;10.794;2023-11-19T08:51:41;10.50;99.90
60868;DHT22;46702;48.370;10.794;2023-11-19T08:54:17;10.50;99.90
60868;DHT22;46702;48.370;10.794;2023-11-19T08:56:48;10.50;99.90
60868;DHT22;46702;48.370;10.794;2023-11-19T08:59:16;10.60;99.90
60868;DHT22;46702;48.370;10.794;2023-11-19T09:01:42;10.70;99.90
60868;DHT22;46702;48.370;10.794;2023-11-19T09:04:07;10.70;99.90
60868;DHT22;46702;48.370;10.794;2023-11-19T09:06:34;10.70;99.90
60868;DHT22;46702;48.370;10.794;2023-11-19T09:09:01;10.70;99.90
60868;DHT22;46702;48.370;10.794;2023-11-19T09:11:29;10.70;99.90
60868;DHT22;46702;48.370;10.794;2023-11-19T09:13:54;10.70;99.90
60868;DHT22;46702;48.370;10.794;2023-11-19T09:16:20;10.80;99.90
60868;DHT22;46702;48.370;10.794;2023-11-19T09:18:45;10.80;99.90
60868;DHT22;46702;48.370;10.794;2023-11-19T09:21:11;10.90;99.90
60868;DHT22;46702;48.370;10.794;2023-11-19T09:23:37;10.90;99.90
60868;DHT22;46702;48.370;10.794;2023-11-19T09:26:05;11.00;99.90
60868;DHT22;46702;48.370;10.794;2023-11-19T09:28:31;11.00;99.90
60868;DHT22;46702;48.370;10.794;2023-11-19T09:30:57;11.10;99.90
60868;DHT22;46702;48.370;10.794;2023-11-19T09:33:24;11.20;99.90
60868;DHT22;46702;48.370;10.794;2023-11-19T09:35:50;11.20;99.90
60868;DHT22;46702;48.370;10.794;2023-11-19T09:38:16;11.30;99.90
60868;DHT22;46702;48.370;10.794;2023-11-19T09:40:42;11.30;99.90
60868;DHT22;46702;48.370;10.794;2023-11-19T09:43:08;11.50;99.90
60868;DHT22;46702;48.370;10.794;2023-11-19T09:45:49;11.50;99.90
60868;DHT22;46702;48.370;10.794;2023-11-19T09:48:19;11.70;99.90
60868;DHT22;46702;48.370;10.794;2023-11-19T09:50:57;11.70;99.90
60868;DHT22;46702;48.370;10.794;2023-11-19T09:53:24;11.80;99.90
60868;DHT22;46702;48.370;10.794;2023-11-19T09:55:50;11.80;99.90
60868;DHT22;46702;48.370;10.794;2023-11-19T09:58:17;11.80;99.90
60868;DHT22;46702;48.370;10.794;2023-11-19T10:00:49;11.90;99.90
60868;DHT22;46702;48.370;10.794;2023-11-19T10:03:15;11.90;99.90
60868;DHT22;46702;48.370;10.794;2023-11-19T10:05:41;11.90;99.90
60868;DHT22;46702;48.370;10.794;2023-11-19T10:08:07;12.00;99.90
60868;DHT22;46702;48.370;10.794;2023-11-19T10:10:34;12.20;99.90
60868;DHT22;46702;48.370;10.794;2023-11-19T10:13:00;12.20;99.90
60868;DHT22;46702;48.370;10.794;2023-11-19T10:15:26;12.20;99.90
60868;DHT22;46702;48.370;10.794;2023-11-19T10:18:01;12.20;99.90
60868;DHT22;46702;48.370;10.794;2023-11-19T10:20:27;12.30;99.90
60868;DHT22;46702;48.370;10.794;2023-11-19T10:22:55;12.20;99.90
60868;DHT22;46702;48.370;10.794;2023-11-19T10:27:56;12.20;99.90
60868;DHT22;46702;48.370;10.794;2023-11-19T10:30:26;12.20;99.90
60868;DHT22;46702;48.370;10.794;2023-11-19T10:33:13;12.30;99.90
60868;DHT22;46702;48.370;10.794;2023-11-19T10:36:03;12.40;99.90
60868;DHT22;46702;48.370;10.794;2023-11-19T10:38:40;12.30;99.90
60868;DHT22;46702;48.370;10.794;2023-11-19T10:41:27;12.20;99.90
60868;DHT22;46702;48.370;10.794;2023-11-19T10:43:56;12.10;99.90
60868;DHT22;46702;48.370;10.794;2023-11-19T10:46:39;12.20;99.90
60868;DHT22;46702;48.370;10.794;2023-11-19T10:49:06;12.10;99.90
60868;DHT22;46702;48.370;10.794;2023-11-19T10:51:36;12.20;99.90
60868;DHT22;46702;48.370;10.794;2023-11-19T10:54:05;12.20;99.90
60868;DHT22;46702;48.370;10.794;2023-11-19T10:56:34;12.30;99.90
60868;DHT22;46702;48.370;10.794;2023-11-19T10:59:01;12.30;99.90
60868;DHT22;46702;48.370;10.794;2023-11-19T11:01:45;12.40;99.90
60868;DHT22;46702;48.370;10.794;2023-11-19T11:04:14;12.40;99.90
60868;DHT22;46702;48.370;10.794;2023-11-19T11:06:43;12.50;99.90
60868;DHT22;46702;48.370;10.794;2023-11-19T11:09:12;12.60;99.90
60868;DHT22;46702;48.370;10.794;2023-11-19T11:11:40;12.60;99.90
60868;DHT22;46702;48.370;10.794;2023-11-19T11:14:15;12.70;99.90
60868;DHT22;46702;48.370;10.794;2023-11-19T11:16:44;12.80;99.90
60868;DHT22;46702;48.370;10.794;2023-11-19T11:19:12;12.70;99.90
60868;DHT22;46702;48.370;10.794;2023-11-19T11:21:43;12.70;99.90
60868;DHT22;46702;48.370;10.794;2023-11-19T11:24:47;12.80;99.90
60868;DHT22;46702;48.370;10.794;2023-11-19T11:27:48;12.80;99.90
60868;DHT22;46702;48.370;10.794;2023-11-19T11:30:46;12.80;99.90
60868;DHT22;46702;48.370;10.794;2023-11-19T11:36:22;12.90;99.90
60868;DHT22;46702;48.370;10.794;2023-11-19T11:38:49;13.00;99.90
60868;DHT22;46702;48.370;10.794;2023-11-19T11:41:19;13.00;99.90
60868;DHT22;46702;48.370;10.794;2023-11-19T11:43:52;13.10;99.90
60868;DHT22;46702;48.370;10.794;2023-11-19T11:49:07;13.20;99.90
60868;DHT22;46702;48.370;10.794;2023-11-19T12:02:03;13.40;99.90
60868;DHT22;46702;48.370;10.794;2023-11-19T12:04:30;13.20;99.90
60868;DHT22;46702;48.370;10.794;2023-11-19T12:07:06;13.30;99.90
60868;DHT22;46702;48.370;10.794;2023-11-19T12:09:32;13.30;99.90
60868;DHT22;46702;48.370;10.794;2023-11-19T12:20:01;13.50;99.90
60868;DHT22;46702;48.370;10.794;2023-11-19T12:22:27;13.60;99.90
60868;DHT22;46702;48.370;10.794;2023-11-19T12:24:54;13.60;99.90
60868;DHT22;46702;48.370;10.794;2023-11-19T12:27:20;13.60;99.90
60868;DHT22;46702;48.370;10.794;2023-11-19T12:29:52;13.70;99.90
60868;DHT22;46702;48.370;10.794;2023-11-19T12:32:21;13.60;99.90
60868;DHT22;46702;48.370;10.794;2023-11-19T12:34:47;13.50;99.90
60868;DHT22;46702;48.370;10.794;2023-11-19T12:37:12;13.50;99.90
60868;DHT22;46702;48.370;10.794;2023-11-19T12:39:38;13.40;99.90
60868;DHT22;46702;48.370;10.794;2023-11-19T12:42:04;13.40;99.90
60868;DHT22;46702;48.370;10.794;2023-11-19T12:44:30;13.40;99.90
60868;DHT22;46702;48.370;10.794;2023-11-19T12:47:28;13.40;99.90
60868;DHT22;46702;48.370;10.794;2023-11-19T12:50:02;13.40;99.90
60868;DHT22;46702;48.370;10.794;2023-11-19T12:52:29;13.40;99.90
60868;DHT22;46702;48.370;10.794;2023-11-19T12:54:55;13.30;99.90
60868;DHT22;46702;48.370;10.794;2023-11-19T12:57:39;13.30;99.90
60868;DHT22;46702;48.370;10.794;2023-11-19T13:00:17;13.30;99.90
60868;DHT22;46702;48.370;10.794;2023-11-19T13:02:46;13.30;99.90
60868;DHT22;46702;48.370;10.794;2023-11-19T13:05:31;13.20;99.90
60868;DHT22;46702;48.370;10.794;2023-11-19T13:08:08;13.20;99.90
60868;DHT22;46702;48.370;10.794;2023-11-19T13:13:19;13.20;99.90
60868;DHT22;46702;48.370;10.794;2023-11-19T13:15:45;13.30;99.90
60868;DHT22;46702;48.370;10.794;2023-11-19T13:18:11;13.40;99.90
60868;DHT22;46702;48.370;10.794;2023-11-19T13:20:37;13.40;99.90
60868;DHT22;46702;48.370;10.794;2023-11-19T13:23:04;13.50;99.90
60868;DHT22;46702;48.370;10.794;2023-11-19T13:25:31;13.40;99.90
60868;DHT22;46702;48.370;10.794;2023-11-19T13:27:58;13.30;99.90
60868;DHT22;46702;48.370;10.794;2023-11-19T13:30:25;13.30;99.90
60868;DHT22;46702;48.370;10.794;2023-11-19T13:32:51;13.40;99.90
60868;DHT22;46702;48.370;10.794;2023-11-19T13:35:18;13.40;99.90
60868;DHT22;46702;48.370;10.794;2023-11-19T13:37:44;13.40;99.90
60868;DHT22;46702;48.370;10.794;2023-11-19T13:40:11;13.40;99.90
60868;DHT22;46702;48.370;10.794;2023-11-19T13:42:43;13.40;99.90
60868;DHT22;46702;48.370;10.794;2023-11-19T13:45:10;13.30;99.90
60868;DHT22;46702;48.370;10.794;2023-11-19T13:47:41;13.30;99.90
60868;DHT22;46702;48.370;10.794;2023-11-19T13:50:14;13.30;99.90
60868;DHT22;46702;48.370;10.794;2023-11-19T13:52:42;13.40;99.90
60868;DHT22;46702;48.370;10.794;2023-11-19T13:55:11;13.50;99.90
60868;DHT22;46702;48.370;10.794;2023-11-19T13:57:38;13.50;99.90
60868;DHT22;46702;48.370;10.794;2023-11-19T14:00:06;13.50;99.90
60868;DHT22;46702;48.370;10.794;2023-11-19T14:02:33;13.50;99.90
60868;DHT22;46702;48.370;10.794;2023-11-19T14:04:59;13.50;99.90
60868;DHT22;46702;48.370;10.794;2023-11-19T14:07:24;13.60;99.90
60868;DHT22;46702;48.370;10.794;2023-11-19T14:09:50;13.60;99.90
60868;DHT22;46702;48.370;10.794;2023-11-19T14:12:16;13.60;99.90
60868;DHT22;46702;48.370;10.794;2023-11-19T14:14:41;13.60;99.90
60868;DHT22;46702;48.370;10.794;2023-11-19T14:17:07;13.60;99.90
60868;DHT22;46702;48.370;10.794;2023-11-19T14:19:33;13.50;99.90
60868;DHT22;46702;48.370;10.794;2023-11-19T14:21:59;13.50;99.90
60868;DHT22;46702;48.370;10.794;2023-11-19T14:24:25;13.60;99.90
60868;DHT22;46702;48.370;10.794;2023-11-19T14:27:00;13.60;99.90
60868;DHT22;46702;48.370;10.794;2023-11-19T14:29:27;13.60;99.90
60868;DHT22;46702;48.370;10.794;2023-11-19T14:31:55;13.60;99.90
60868;DHT22;46702;48.370;10.794;2023-11-19T14:34:21;13.50;99.90
60868;DHT22;46702;48.370;10.794;2023-11-19T14:36:46;13.50;99.90
60868;DHT22;46702;48.370;10.794;2023-11-19T14:39:15;13.40;99.90
60868;DHT22;46702;48.370;10.794;2023-11-19T14:41:43;13.30;99.90
60868;DHT22;46702;48.370;10.794;2023-11-19T14:44:09;13.20;99.90
60868;DHT22;46702;48.370;10.794;2023-11-19T14:46:35;13.10;99.90
60868;DHT22;46702;48.370;10.794;2023-11-19T14:49:01;13.10;99.90
60868;DHT22;46702;48.370;10.794;2023-11-19T14:51:27;13.00;99.90
60868;DHT22;46702;48.370;10.794;2023-11-19T14:53:53;13.10;99.90
60868;DHT22;46702;48.370;10.794;2023-11-19T14:56:18;13.00;99.90
60868;DHT22;46702;48.370;10.794;2023-11-19T14:58:44;13.00;99.90
60868;DHT22;46702;48.370;10.794;2023-11-19T15:01:13;13.00;99.90
60868;DHT22;46702;48.370;10.794;2023-11-19T15:03:39;13.00;99.90
60868;DHT22;46702;48.370;10.794;2023-11-19T15:06:06;12.90;99.90
60868;DHT22;46702;48.370;10.794;2023-11-19T15:08:32;12.90;99.90
60868;DHT22;46702;48.370;10.794;2023-11-19T15:10:58;12.80;99.90
60868;DHT22;46702;48.370;10.794;2023-11-19T15:13:25;12.70;99.90
60868;DHT22;46702;48.370;10.794;2023-11-19T15:15:50;12.70;99.90
60868;DHT22;46702;48.370;10.794;2023-11-19T15:18:18;12.70;99.90
60868;DHT22;46702;48.370;10.794;2023-11-19T15:20:44;12.60;99.90
60868;DHT22;46702;48.370;10.794;2023-11-19T15:23:13;12.50;99.90
60868;DHT22;46702;48.370;10.794;2023-11-19T15:25:39;12.50;99.90
60868;DHT22;46702;48.370;10.794;2023-11-19T15:28:05;12.40;99.90
60868;DHT22;46702;48.370;10.794;2023-11-19T15:30:30;12.40;99.90
60868;DHT22;46702;48.370;10.794;2023-11-19T15:32:56;12.30;99.90
60868;DHT22;46702;48.370;10.794;2023-11-19T15:35:21;12.30;99.90
60868;DHT22;46702;48.370;10.794;2023-11-19T15:37:47;12.30;99.90
60868;DHT22;46702;48.370;10.794;2023-11-19T15:40:16;12.30;99.90
60868;DHT22;46702;48.370;10.794;2023-11-19T15:42:41;12.30;99.90
60868;DHT22;46702;48.370;10.794;2023-11-19T15:45:11;12.20;99.90
60868;DHT22;46702;48.370;10.794;2023-11-19T15:47:37;12.20;99.90
60868;DHT22;46702;48.370;10.794;2023-11-19T15:50:04;12.20;99.90
60868;DHT22;46702;48.370;10.794;2023-11-19T15:52:30;12.20;99.90
60868;DHT22;46702;48.370;10.794;2023-11-19T15:54:56;12.20;99.90
60868;DHT22;46702;48.370;10.794;2023-11-19T15:57:22;12.20;99.90
60868;DHT22;46702;48.370;10.794;2023-11-19T15:59:48;12.20;99.90
60868;DHT22;46702;48.370;10.794;2023-11-19T16:02:14;12.30;99.90